createdAt,value
2018-02-16T00:00:53.632Z,5.10
2018-02-16T00:03:21.119Z,5.10
2018-02-16T00:05:48.712Z,4.90
2018-02-16T00:08:16.794Z,5.00
2018-02-16T00:10:44.776Z,5.10
2018-02-16T00:13:12.640Z,5.00
2018-02-16T00:15:40.544Z,4.90
2018-02-16T00:18:08.777Z,5.00
2018-02-16T00:20:37.984Z,5.10
2018-02-16T00:23:05.587Z,5.10
2018-02-16T00:25:33.558Z,5.00
2018-02-16T00:28:01.469Z,5.00
2018-02-16T00:30:29.420Z,5.10
2018-02-16T00:32:57.930Z,4.90
2018-02-16T00:35:25.403Z,4.90
2018-02-16T00:37:53.014Z,5.10
2018-02-16T00:40:21.896Z,5.10
2018-02-16T00:42:49.509Z,5.00
2018-02-16T00:45:17.029Z,5.10
2018-02-16T00:47:45.265Z,5.10
2018-02-16T00:50:13.210Z,5.00
2018-02-16T00:52:40.960Z,5.00
2018-02-16T00:55:08.891Z,5.10
2018-02-16T00:57:36.679Z,5.20
2018-02-16T01:00:05.028Z,5.00
2018-02-16T01:02:32.961Z,5.00
2018-02-16T01:05:00.783Z,5.00
2018-02-16T01:07:28.477Z,5.10
2018-02-16T01:09:56.050Z,5.10
2018-02-16T01:12:23.569Z,5.00
2018-02-16T01:14:51.092Z,4.90
2018-02-16T01:17:18.948Z,5.00
2018-02-16T01:19:46.600Z,5.00
2018-02-16T01:22:14.149Z,5.10
2018-02-16T01:24:41.624Z,4.90
2018-02-16T01:27:09.137Z,4.90
2018-02-16T01:29:37.404Z,5.00
2018-02-16T01:32:04.876Z,5.00
2018-02-16T01:34:33.122Z,5.20
2018-02-16T01:37:00.612Z,5.20
2018-02-16T01:39:28.928Z,5.40
2018-02-16T01:41:56.428Z,5.30
2018-02-16T01:44:23.901Z,5.30
2018-02-16T01:46:51.376Z,5.20
2018-02-16T01:49:19.633Z,5.10
2018-02-16T01:51:47.104Z,5.00
2018-02-16T01:54:15.336Z,5.00
2018-02-16T01:56:42.828Z,5.00
2018-02-16T01:59:10.296Z,5.10
2018-02-16T02:01:38.533Z,5.10
2018-02-16T02:04:06.028Z,5.10
2018-02-16T02:06:33.496Z,5.00
2018-02-16T02:09:01.732Z,4.80
2018-02-16T02:11:29.215Z,4.70
2018-02-16T02:13:56.684Z,4.80
2018-02-16T02:16:24.949Z,4.80
2018-02-16T02:18:52.419Z,4.70
2018-02-16T02:21:20.659Z,4.70
2018-02-16T02:23:48.139Z,4.60
2018-02-16T02:26:15.608Z,4.60
2018-02-16T02:28:43.096Z,4.60
2018-02-16T02:31:10.567Z,4.70
2018-02-16T02:33:38.106Z,4.60
2018-02-16T02:36:06.364Z,4.60
2018-02-16T02:38:33.836Z,4.50
2018-02-16T02:41:02.077Z,4.60
2018-02-16T02:43:29.644Z,4.60
2018-02-16T02:45:57.124Z,4.70
2018-02-16T02:48:25.415Z,4.70
2018-02-16T02:50:53.666Z,4.70
2018-02-16T02:53:21.140Z,4.70
2018-02-16T02:55:49.395Z,4.90
2018-02-16T02:58:16.869Z,4.80
2018-02-16T03:00:45.145Z,4.70
2018-02-16T03:03:13.530Z,4.50
2018-02-16T03:05:41.772Z,4.60
2018-02-16T03:08:09.244Z,4.60
2018-02-16T03:10:37.501Z,4.70
2018-02-16T03:13:04.979Z,4.70
2018-02-16T03:15:34.016Z,4.80
2018-02-16T03:18:01.505Z,4.80
2018-02-16T03:20:28.975Z,4.80
2018-02-16T03:22:56.514Z,4.60
2018-02-16T03:25:24.725Z,4.60
2018-02-16T03:27:52.196Z,4.60
2018-02-16T03:30:19.696Z,4.70
2018-02-16T03:32:47.160Z,4.60
2018-02-16T03:35:14.655Z,4.60
2018-02-16T03:37:42.148Z,4.50
2018-02-16T03:40:10.384Z,4.40
2018-02-16T03:42:37.873Z,4.40
2018-02-16T03:45:05.344Z,4.50
2018-02-16T03:47:33.584Z,4.50
2018-02-16T03:50:01.108Z,4.40
2018-02-16T03:52:28.582Z,4.40
2018-02-16T03:54:56.080Z,4.30
2018-02-16T03:57:23.643Z,4.20
2018-02-16T03:59:51.212Z,4.20
2018-02-16T04:02:19.476Z,4.30
2018-02-16T04:04:46.944Z,4.30
2018-02-16T04:07:15.184Z,4.30
2018-02-16T04:09:42.665Z,4.30
2018-02-16T04:12:10.136Z,4.20
2018-02-16T04:14:37.656Z,4.20
2018-02-16T04:17:05.164Z,4.30
2018-02-16T04:19:33.406Z,4.20
2018-02-16T04:22:00.907Z,4.10
2018-02-16T04:24:29.149Z,4.30
2018-02-16T04:26:56.624Z,4.30
2018-02-16T04:29:24.904Z,4.50
2018-02-16T04:31:53.139Z,4.40
2018-02-16T04:34:20.608Z,4.30
2018-02-16T04:36:48.120Z,4.30
2018-02-16T04:39:16.360Z,4.00
2018-02-16T04:41:45.343Z,4.00
2018-02-16T04:44:12.836Z,4.00
2018-02-16T04:46:41.072Z,4.10
2018-02-16T04:49:08.547Z,4.10
2018-02-16T04:51:36.809Z,4.10
2018-02-16T04:54:05.231Z,4.10
2018-02-16T04:56:33.470Z,4.10
2018-02-16T04:59:01.000Z,4.00
2018-02-16T05:01:28.476Z,4.10
2018-02-16T05:03:55.954Z,3.80
2018-02-16T05:06:23.464Z,3.50
2018-02-16T05:08:50.939Z,3.40
2018-02-16T05:11:18.408Z,3.20
2018-02-16T05:13:45.951Z,3.50
2018-02-16T05:16:13.429Z,3.70
2018-02-16T05:18:40.905Z,3.40
2018-02-16T05:21:08.399Z,3.20
2018-02-16T05:23:36.637Z,3.70
2018-02-16T05:26:04.105Z,3.60
2018-02-16T05:28:31.637Z,3.90
2018-02-16T05:30:59.147Z,3.50
2018-02-16T05:33:27.384Z,3.90
2018-02-16T05:35:54.866Z,3.90
2018-02-16T05:38:22.436Z,4.00
2018-02-16T05:40:50.716Z,3.50
2018-02-16T05:43:18.188Z,3.40
2018-02-16T05:45:46.424Z,3.70
2018-02-16T05:48:13.909Z,3.60
2018-02-16T05:50:41.376Z,3.70
2018-02-16T05:53:09.633Z,3.50
2018-02-16T05:55:37.116Z,3.50
2018-02-16T05:58:05.359Z,3.20
2018-02-16T06:00:32.860Z,3.20
2018-02-16T06:03:01.100Z,3.10
2018-02-16T06:05:29.340Z,3.00
2018-02-16T06:07:56.834Z,3.00
2018-02-16T06:10:24.313Z,3.00
2018-02-16T06:12:52.560Z,3.10
2018-02-16T06:15:20.058Z,3.00
2018-02-16T06:17:48.325Z,3.10
2018-02-16T06:20:15.796Z,3.00
2018-02-16T06:22:44.042Z,3.00
2018-02-16T06:25:12.289Z,2.90
2018-02-16T06:27:39.768Z,2.90
2018-02-16T06:30:07.250Z,3.20
2018-02-16T06:32:34.720Z,3.40
2018-02-16T06:35:02.984Z,3.70
2018-02-16T06:37:30.473Z,3.60
2018-02-16T06:39:57.948Z,3.70
2018-02-16T06:42:25.467Z,3.80
2018-02-16T06:44:53.706Z,3.40
2018-02-16T06:47:21.199Z,3.30
2018-02-16T06:49:48.669Z,3.20
2018-02-16T06:52:16.909Z,3.30
2018-02-16T06:54:44.394Z,3.20
2018-02-16T06:57:11.863Z,3.30
2018-02-16T06:59:40.124Z,3.40
2018-02-16T07:02:07.600Z,3.40
2018-02-16T07:04:35.869Z,3.40
2018-02-16T07:07:04.134Z,3.20
2018-02-16T07:09:32.380Z,3.30
2018-02-16T07:11:59.856Z,3.20
2018-02-16T07:14:27.352Z,3.60
2018-02-16T07:16:55.601Z,3.70
2018-02-16T07:19:24.585Z,3.60
2018-02-16T07:21:52.064Z,3.60
2018-02-16T07:24:19.536Z,3.90
2018-02-16T07:26:47.800Z,4.00
2018-02-16T07:29:15.280Z,4.00
2018-02-16T07:31:42.763Z,3.90
2018-02-16T07:34:10.264Z,3.80
2018-02-16T07:36:38.509Z,4.10
2018-02-16T07:39:05.986Z,4.10
2018-02-16T07:41:33.472Z,4.10
2018-02-16T07:44:01.723Z,4.40
2018-02-16T07:46:29.220Z,4.30
2018-02-16T07:48:57.463Z,4.40
2018-02-16T07:51:24.944Z,4.40
2018-02-16T07:53:52.444Z,4.50
2018-02-16T07:56:19.921Z,4.60
2018-02-16T07:58:47.396Z,4.50
2018-02-16T08:01:14.889Z,4.60
2018-02-16T08:03:43.124Z,4.90
2018-02-16T08:06:10.593Z,4.90
2018-02-16T08:08:38.083Z,4.90
2018-02-16T08:11:06.320Z,5.00
2018-02-16T08:13:33.792Z,5.00
2018-02-16T08:16:01.304Z,5.10
2018-02-16T08:18:28.779Z,5.30
2018-02-16T08:20:56.252Z,5.40
2018-02-16T08:23:23.736Z,5.40
2018-02-16T08:25:51.207Z,5.40
2018-02-16T08:28:19.472Z,5.20
2018-02-16T08:30:46.946Z,5.20
2018-02-16T08:33:15.180Z,5.40
2018-02-16T08:35:42.675Z,5.30
2018-02-16T08:38:10.148Z,5.70
2018-02-16T08:40:38.380Z,5.60
2018-02-16T08:43:05.877Z,5.60
2018-02-16T08:45:34.115Z,5.70
2018-02-16T08:48:01.589Z,5.70
2018-02-16T08:50:29.080Z,5.90
2018-02-16T08:52:57.316Z,5.80
2018-02-16T08:55:24.792Z,5.80
2018-02-16T08:57:53.080Z,5.80
2018-02-16T09:00:21.319Z,6.00
2018-02-16T09:02:48.804Z,5.90
2018-02-16T09:05:16.304Z,6.10
2018-02-16T09:07:43.828Z,6.10
2018-02-16T09:10:11.300Z,6.20
2018-02-16T09:12:39.556Z,6.40
2018-02-16T09:15:07.024Z,6.30
2018-02-16T09:17:35.267Z,6.50
2018-02-16T09:20:02.757Z,6.50
2018-02-16T09:22:30.239Z,6.60
2018-02-16T09:24:58.535Z,6.40
2018-02-16T09:27:26.004Z,6.40
2018-02-16T09:29:53.473Z,6.50
2018-02-16T09:32:20.964Z,6.70
2018-02-16T09:34:48.536Z,6.70
2018-02-16T09:37:17.631Z,6.80
2018-02-16T09:39:46.592Z,6.60
2018-02-16T09:42:14.081Z,6.60
2018-02-16T09:44:42.361Z,6.70
2018-02-16T09:47:10.604Z,6.80
2018-02-16T09:49:38.187Z,6.80
2018-02-16T09:52:05.684Z,6.90
2018-02-16T09:54:33.200Z,6.90
2018-02-16T09:57:00.641Z,6.90
2018-02-16T09:59:28.136Z,6.90
2018-02-16T10:01:56.376Z,7.00
2018-02-16T10:04:23.853Z,6.90
2018-02-16T10:06:51.346Z,7.00
2018-02-16T10:09:19.584Z,7.10
2018-02-16T10:11:47.056Z,7.10
2018-02-16T10:14:14.548Z,7.20
2018-02-16T10:16:42.020Z,7.30
2018-02-16T10:19:09.489Z,7.30
2018-02-16T10:21:36.992Z,7.40
2018-02-16T10:24:04.471Z,7.50
2018-02-16T10:26:31.952Z,7.50
2018-02-16T10:28:59.448Z,7.50
2018-02-16T10:31:26.917Z,7.60
2018-02-16T10:33:55.968Z,7.60
2018-02-16T10:36:23.452Z,7.60
2018-02-16T10:38:50.925Z,7.70
2018-02-16T10:41:18.416Z,7.70
2018-02-16T10:43:46.656Z,7.80
2018-02-16T10:46:14.128Z,7.70
2018-02-16T10:48:42.393Z,7.80
2018-02-16T10:51:09.868Z,7.80
2018-02-16T10:53:37.336Z,7.90
2018-02-16T10:56:05.600Z,7.90
2018-02-16T10:58:33.184Z,7.90
2018-02-16T11:01:07.288Z,8.10
2018-02-16T11:03:38.528Z,8.10
2018-02-16T11:06:11.672Z,8.00
2018-02-16T11:08:44.917Z,8.10
2018-02-16T11:11:13.181Z,8.20
2018-02-16T11:13:40.653Z,8.20
2018-02-16T11:16:08.125Z,8.20
2018-02-16T11:18:36.389Z,8.20
2018-02-16T11:21:04.633Z,8.30
2018-02-16T11:23:32.103Z,8.30
2018-02-16T11:25:59.602Z,8.40
2018-02-16T11:28:27.849Z,8.50
2018-02-16T11:30:55.330Z,8.40
2018-02-16T11:33:23.596Z,8.50
2018-02-16T11:35:51.852Z,8.50
2018-02-16T11:38:19.323Z,8.50
2018-02-16T11:40:46.808Z,8.50
2018-02-16T11:43:15.053Z,8.50
2018-02-16T11:45:42.541Z,8.50
2018-02-16T11:48:10.784Z,8.60
2018-02-16T11:50:38.260Z,8.50
2018-02-16T11:53:05.786Z,8.60
2018-02-16T11:55:33.302Z,8.70
2018-02-16T11:58:01.595Z,8.70
2018-02-16T12:00:29.122Z,8.70
2018-02-16T12:02:57.493Z,8.80
2018-02-16T12:05:25.020Z,8.80
2018-02-16T12:07:52.544Z,8.90
2018-02-16T12:10:20.126Z,8.90
2018-02-16T12:12:47.647Z,8.80
2018-02-16T12:15:16.083Z,8.90
2018-02-16T12:17:43.705Z,8.80
2018-02-16T12:20:11.242Z,9.00
2018-02-16T12:22:38.767Z,9.00
2018-02-16T12:25:06.344Z,9.10
2018-02-16T12:27:33.900Z,9.10
2018-02-16T12:30:02.230Z,9.20
2018-02-16T12:32:29.772Z,9.10
2018-02-16T12:34:58.066Z,9.20
2018-02-16T12:37:25.652Z,9.20
2018-02-16T12:39:53.181Z,9.20
2018-02-16T12:42:21.472Z,9.20
2018-02-16T12:44:49.044Z,9.20
2018-02-16T12:47:16.571Z,9.20
2018-02-16T12:49:44.151Z,9.20
2018-02-16T12:52:11.703Z,9.30
2018-02-16T12:54:39.197Z,9.30
2018-02-16T12:57:06.676Z,9.40
2018-02-16T12:59:34.167Z,9.40
2018-02-16T13:02:02.477Z,9.50
2018-02-16T13:04:29.979Z,9.40
2018-02-16T13:06:57.473Z,9.50
2018-02-16T13:12:07.736Z,9.50
2018-02-16T13:14:35.973Z,9.50
2018-02-16T13:17:03.443Z,9.50
2018-02-16T13:19:30.958Z,9.60
2018-02-16T13:21:58.433Z,9.60
2018-02-16T13:24:25.908Z,9.60
2018-02-16T13:26:53.400Z,9.60
2018-02-16T13:29:21.640Z,9.40
2018-02-16T13:31:49.138Z,9.30
2018-02-16T13:34:18.129Z,9.50
2018-02-16T13:36:45.600Z,9.50
2018-02-16T13:39:13.840Z,9.70
2018-02-16T13:41:41.416Z,9.60
2018-02-16T13:44:08.888Z,9.60
2018-02-16T13:46:37.128Z,9.60
2018-02-16T13:49:04.624Z,9.60
2018-02-16T13:51:32.873Z,9.60
2018-02-16T13:54:00.352Z,9.60
2018-02-16T13:56:27.844Z,9.70
2018-02-16T13:58:55.320Z,9.70
2018-02-16T14:01:22.794Z,9.70
2018-02-16T14:03:50.273Z,9.70
2018-02-16T14:06:17.741Z,9.70
2018-02-16T14:08:45.315Z,9.70
2018-02-16T14:11:13.552Z,9.70
2018-02-16T14:13:41.020Z,9.60
2018-02-16T14:16:08.516Z,9.70
2018-02-16T14:18:37.032Z,9.70
2018-02-16T14:21:05.009Z,9.60
2018-02-16T14:23:32.768Z,9.70
2018-02-16T14:26:01.212Z,9.70
2018-02-16T14:28:29.944Z,9.80
2018-02-16T14:30:58.006Z,9.70
2018-02-16T14:33:26.228Z,9.70
2018-02-16T14:35:54.563Z,9.70
2018-02-16T14:38:22.670Z,9.70
2018-02-16T14:40:50.807Z,9.80
2018-02-16T14:43:21.614Z,9.80
2018-02-16T14:45:51.795Z,9.80
2018-02-16T14:48:21.934Z,9.80
2018-02-16T14:50:52.630Z,9.80
2018-02-16T14:53:20.666Z,9.80
2018-02-16T14:55:49.609Z,9.90
2018-02-16T14:58:20.490Z,9.80
2018-02-16T15:00:54.190Z,9.80
2018-02-16T15:03:23.081Z,9.80
2018-02-16T15:05:53.773Z,9.80
2018-02-16T15:08:21.930Z,9.70
2018-02-16T15:10:51.025Z,9.80
2018-02-16T15:13:20.034Z,9.80
2018-02-16T15:15:48.402Z,9.80
2018-02-16T15:18:19.712Z,9.80
2018-02-16T15:20:47.953Z,9.80
2018-02-16T15:23:15.693Z,9.80
2018-02-16T15:25:46.061Z,9.80
2018-02-16T15:28:14.540Z,9.80
2018-02-16T15:30:43.559Z,9.80
2018-02-16T15:33:17.267Z,9.80
2018-02-16T15:35:45.612Z,9.90
2018-02-16T15:38:13.564Z,9.80
2018-02-16T15:40:45.101Z,9.80
2018-02-16T15:43:19.059Z,9.80
2018-02-16T15:45:48.452Z,9.70
2018-02-16T15:48:19.200Z,9.70
2018-02-16T15:50:54.026Z,9.70
2018-02-16T15:53:24.688Z,9.70
2018-02-16T15:55:52.461Z,9.70
2018-02-16T15:58:20.695Z,9.70
2018-02-16T16:00:48.171Z,9.60
2018-02-16T16:03:15.664Z,9.60
2018-02-16T16:05:43.134Z,9.60
2018-02-16T16:08:10.652Z,9.70
2018-02-16T16:10:38.148Z,9.70
2018-02-16T16:13:05.620Z,9.60
2018-02-16T16:15:33.088Z,9.60
2018-02-16T16:18:06.551Z,9.60
2018-02-16T16:20:36.943Z,9.50
2018-02-16T16:23:08.397Z,9.40
2018-02-16T16:25:35.877Z,9.40
2018-02-16T16:28:05.238Z,9.50
2018-02-16T16:30:34.105Z,9.40
2018-02-16T16:33:02.812Z,9.40
2018-02-16T16:35:30.287Z,9.30
2018-02-16T16:37:57.776Z,9.30
2018-02-16T16:40:27.584Z,9.30
2018-02-16T16:42:57.916Z,9.30
2018-02-16T16:45:26.970Z,9.20
2018-02-16T16:47:59.436Z,9.30
2018-02-16T16:50:28.492Z,9.30
2018-02-16T16:52:55.965Z,9.30
2018-02-16T16:55:25.644Z,9.20
2018-02-16T16:57:57.196Z,9.10
2018-02-16T17:00:26.913Z,9.10
2018-02-16T17:02:56.318Z,9.20
2018-02-16T17:05:24.561Z,9.10
2018-02-16T17:07:52.040Z,9.10
2018-02-16T17:10:20.284Z,9.00
2018-02-16T17:12:47.798Z,9.00
2018-02-16T17:15:16.050Z,9.00
2018-02-16T17:17:43.528Z,9.00
2018-02-16T17:20:11.793Z,8.90
2018-02-16T17:22:40.054Z,8.80
2018-02-16T17:25:07.537Z,8.80
2018-02-16T17:27:35.780Z,8.90
2018-02-16T17:30:03.276Z,8.80
2018-02-16T17:32:31.507Z,8.60
2018-02-16T17:34:58.976Z,8.60
2018-02-16T17:37:26.456Z,8.50
2018-02-16T17:39:53.928Z,8.50
2018-02-16T17:42:22.194Z,8.50
2018-02-16T17:44:50.436Z,8.50
2018-02-16T17:47:17.913Z,8.40
2018-02-16T17:49:45.400Z,8.40
2018-02-16T17:52:13.636Z,8.50
2018-02-16T17:54:41.108Z,8.50
2018-02-16T17:57:10.104Z,8.50
2018-02-16T17:59:37.576Z,8.50
2018-02-16T18:02:05.820Z,8.40
2018-02-16T18:04:33.311Z,8.30
2018-02-16T18:07:01.547Z,8.30
2018-02-16T18:09:29.016Z,8.30
2018-02-16T18:11:56.500Z,8.30
2018-02-16T18:14:23.978Z,8.30
2018-02-16T18:16:52.238Z,8.50
2018-02-16T18:19:20.484Z,8.40
2018-02-16T18:21:47.960Z,8.40
2018-02-16T18:24:15.456Z,8.40
2018-02-16T18:26:43.711Z,8.50
2018-02-16T18:29:11.184Z,8.40
2018-02-16T18:31:39.423Z,8.00
2018-02-16T18:34:06.900Z,8.00
2018-02-16T18:36:34.388Z,8.00
2018-02-16T18:39:01.920Z,8.20
2018-02-16T18:41:29.390Z,8.30
2018-02-16T18:43:57.649Z,8.30
2018-02-16T18:46:25.128Z,8.30
2018-02-16T18:48:53.369Z,8.40
2018-02-16T18:51:20.868Z,8.30
2018-02-16T18:53:49.172Z,8.30
2018-02-16T18:56:16.645Z,8.20
2018-02-16T18:58:44.146Z,8.40
2018-02-16T19:01:12.397Z,8.20
2018-02-16T19:03:39.887Z,8.20
2018-02-16T19:06:08.149Z,8.20
2018-02-16T19:08:35.711Z,8.20
2018-02-16T19:11:03.181Z,8.20
2018-02-16T19:13:31.502Z,8.40
2018-02-16T19:15:58.980Z,8.30
2018-02-16T19:18:26.480Z,8.30
2018-02-16T19:20:53.952Z,8.20
2018-02-16T19:23:22.211Z,8.00
2018-02-16T19:25:49.692Z,8.00
2018-02-16T19:28:17.929Z,8.00
2018-02-16T19:30:45.423Z,8.00
2018-02-16T19:33:13.664Z,7.90
2018-02-16T19:35:41.140Z,7.80
2018-02-16T19:38:08.621Z,7.80
2018-02-16T19:40:36.860Z,7.60
2018-02-16T19:43:04.481Z,7.50
2018-02-16T19:45:31.987Z,7.60
2018-02-16T19:47:59.467Z,7.30
2018-02-16T19:50:27.735Z,7.40
2018-02-16T19:52:55.204Z,7.40
2018-02-16T19:55:23.444Z,7.10
2018-02-16T19:57:50.940Z,7.10
2018-02-16T20:00:19.176Z,7.10
2018-02-16T20:02:46.709Z,7.10
2018-02-16T20:05:14.234Z,7.30
2018-02-16T20:07:42.468Z,7.10
2018-02-16T20:10:09.944Z,7.10
2018-02-16T20:12:37.434Z,6.90
2018-02-16T20:15:05.740Z,7.10
2018-02-16T20:17:33.212Z,7.00
2018-02-16T20:20:00.708Z,7.20
2018-02-16T20:22:28.176Z,7.10
2018-02-16T20:24:56.420Z,7.30
2018-02-16T20:27:23.911Z,7.20
2018-02-16T20:29:52.167Z,7.40
2018-02-16T20:32:19.635Z,7.40
2018-02-16T20:34:47.124Z,7.50
2018-02-16T20:37:15.363Z,7.40
2018-02-16T20:39:42.836Z,7.40
2018-02-16T20:42:10.312Z,7.10
2018-02-16T20:44:38.544Z,7.30
2018-02-16T20:47:06.034Z,7.20
2018-02-16T20:49:34.285Z,7.10
2018-02-16T20:52:01.795Z,7.10
2018-02-16T20:54:30.036Z,7.10
2018-02-16T20:56:57.544Z,7.00
2018-02-16T20:59:25.012Z,7.20
2018-02-16T21:01:52.504Z,7.20
2018-02-16T21:04:19.971Z,7.10
2018-02-16T21:06:47.496Z,6.80
2018-02-16T21:09:14.968Z,6.80
2018-02-16T21:11:42.440Z,6.90
2018-02-16T21:14:09.954Z,6.80
2018-02-16T21:16:37.433Z,6.90
2018-02-16T21:19:04.906Z,6.70
2018-02-16T21:21:32.424Z,6.80
2018-02-16T21:23:59.917Z,7.00
2018-02-16T21:26:27.428Z,7.00
2018-02-16T21:28:55.693Z,6.80
2018-02-16T21:31:23.982Z,6.90
2018-02-16T21:33:51.444Z,6.80
2018-02-16T21:36:19.708Z,7.10
2018-02-16T21:38:47.987Z,7.10
2018-02-16T21:41:15.444Z,7.10
2018-02-16T21:43:43.726Z,6.90
2018-02-16T21:46:11.989Z,7.00
2018-02-16T21:48:39.460Z,7.00
2018-02-16T21:51:07.715Z,7.00
2018-02-16T21:53:35.211Z,7.00
2018-02-16T21:56:02.748Z,7.00
2018-02-16T21:58:30.280Z,7.00
2018-02-16T22:00:57.752Z,7.00
2018-02-16T22:03:25.230Z,6.90
2018-02-16T22:05:53.476Z,6.90
2018-02-16T22:08:20.944Z,6.90
2018-02-16T22:10:48.526Z,7.00
2018-02-16T22:13:18.747Z,6.90
2018-02-16T22:15:46.992Z,7.20
2018-02-16T22:18:14.480Z,7.20
2018-02-16T22:20:41.957Z,7.30
2018-02-16T22:23:10.195Z,7.30
2018-02-16T22:25:37.687Z,7.30
2018-02-16T22:28:05.924Z,7.30
2018-02-16T22:30:33.397Z,7.30
2018-02-16T22:33:00.892Z,7.40
2018-02-16T22:35:29.128Z,7.40
2018-02-16T22:37:56.604Z,7.40
2018-02-16T22:40:24.088Z,7.30
2018-02-16T22:42:51.557Z,7.40
2018-02-16T22:45:19.052Z,7.60
2018-02-16T22:47:46.520Z,7.50
2018-02-16T22:50:13.996Z,7.40
2018-02-16T22:52:42.263Z,7.50
2018-02-16T22:55:09.760Z,7.50
2018-02-16T22:57:37.236Z,7.50
2018-02-16T23:00:04.820Z,7.30
2018-02-16T23:02:32.288Z,7.30
2018-02-16T23:04:59.757Z,7.40
2018-02-16T23:07:27.255Z,7.40
2018-02-16T23:09:54.793Z,7.40
2018-02-16T23:12:23.069Z,7.50
2018-02-16T23:14:51.349Z,7.40
2018-02-16T23:17:19.620Z,7.40
2018-02-16T23:19:47.857Z,7.50
2018-02-16T23:22:15.366Z,7.40
2018-02-16T23:24:43.609Z,7.70
2018-02-16T23:27:11.091Z,7.70
2018-02-16T23:29:38.588Z,7.80
2018-02-16T23:32:06.056Z,7.70
2018-02-16T23:34:33.527Z,7.60
2018-02-16T23:37:01.012Z,7.70
2018-02-16T23:39:28.485Z,7.70
2018-02-16T23:41:55.963Z,7.70
2018-02-16T23:44:24.170Z,7.70
2018-02-16T23:46:51.649Z,7.70
2018-02-16T23:49:19.889Z,7.80
2018-02-16T23:51:47.381Z,7.70
2018-02-16T23:54:15.621Z,7.80
2018-02-16T23:56:43.105Z,7.70
2018-02-16T23:59:11.369Z,7.70
